Portada
METAR-TAF:

METAR-TAF

Aeroports :

Nörvenich, Alemanya

latitud: 50-50N, longitud: 006-40E, altitud: 118 m

Observació

L'informe es va fer fa 42 minuts, a les 23:20 UTC
Vent 6 kt del Oest/Sud-Oest
Temperatura 2°C
Humitat 93%
Pressió 1030 hPa
Visibilitat 10 km o més
Escasses núvols a una alçada de 2000 ft

METAR: ETNN 182320Z 25006KT 9999 FEW020 02/01 Q1030 BLU+

Hora: 01:02 (00:02 UTC)


TAF: manca

Observacions i pronòstics meteorològics de més de 4000 aeroports (METAR i TAF).

Les estacions disponibles són els punts grocs i vermells al mapa.

Posi el ratolí al punt desitjat per veure el nom de l'estació.

Feu clic per veure les observacions i els pronòstics meteorològics.

Per canviar el mapa: feu clic els botons verds amb una creu de color negre per apropar; al botó verd amb un guió per allunyar la imatge; o en les fletxes verdes per a mapes adjacents.


METAR-TAF: